sensor_id;sensor_type;location;lat;lon;timestamp;temperature;humidity
27306;DHT22;14792;50.886;6.468;2023-12-20T00:00:51;8.00;99.90
27306;DHT22;14792;50.886;6.468;2023-12-20T00:03:53;8.00;99.90
27306;DHT22;14792;50.886;6.468;2023-12-20T00:06:55;8.00;99.90
27306;DHT22;14792;50.886;6.468;2023-12-20T00:09:56;8.00;99.90
27306;DHT22;14792;50.886;6.468;2023-12-20T00:12:58;8.00;99.90
27306;DHT22;14792;50.886;6.468;2023-12-20T00:15:59;8.00;99.90
27306;DHT22;14792;50.886;6.468;2023-12-20T00:19:01;8.00;99.90
27306;DHT22;14792;50.886;6.468;2023-12-20T00:22:03;8.00;99.90
27306;DHT22;14792;50.886;6.468;2023-12-20T00:25:04;7.90;99.90
27306;DHT22;14792;50.886;6.468;2023-12-20T00:28:06;7.90;99.90
27306;DHT22;14792;50.886;6.468;2023-12-20T00:31:07;7.80;99.90
27306;DHT22;14792;50.886;6.468;2023-12-20T00:34:09;7.80;99.90
27306;DHT22;14792;50.886;6.468;2023-12-20T00:37:11;7.80;99.90
27306;DHT22;14792;50.886;6.468;2023-12-20T00:40:12;7.70;99.90
27306;DHT22;14792;50.886;6.468;2023-12-20T00:43:14;7.70;99.90
27306;DHT22;14792;50.886;6.468;2023-12-20T00:46:15;7.70;99.90
27306;DHT22;14792;50.886;6.468;2023-12-20T00:49:17;7.70;99.90
27306;DHT22;14792;50.886;6.468;2023-12-20T00:52:18;7.70;99.90
27306;DHT22;14792;50.886;6.468;2023-12-20T00:55:20;7.80;99.90
27306;DHT22;14792;50.886;6.468;2023-12-20T00:58:22;7.70;99.90
27306;DHT22;14792;50.886;6.468;2023-12-20T01:01:23;7.70;99.90
27306;DHT22;14792;50.886;6.468;2023-12-20T01:04:25;7.70;99.90
27306;DHT22;14792;50.886;6.468;2023-12-20T01:07:26;7.70;99.90
27306;DHT22;14792;50.886;6.468;2023-12-20T01:10:28;7.50;99.90
27306;DHT22;14792;50.886;6.468;2023-12-20T01:13:30;7.60;99.90
27306;DHT22;14792;50.886;6.468;2023-12-20T01:16:31;7.60;99.90
27306;DHT22;14792;50.886;6.468;2023-12-20T01:19:33;7.50;99.90
27306;DHT22;14792;50.886;6.468;2023-12-20T01:22:34;7.40;99.90
27306;DHT22;14792;50.886;6.468;2023-12-20T01:25:36;7.20;99.90
27306;DHT22;14792;50.886;6.468;2023-12-20T01:28:38;7.10;99.90
27306;DHT22;14792;50.886;6.468;2023-12-20T01:31:39;7.00;99.90
27306;DHT22;14792;50.886;6.468;2023-12-20T01:34:41;6.90;99.90
27306;DHT22;14792;50.886;6.468;2023-12-20T01:37:42;6.80;99.90
27306;DHT22;14792;50.886;6.468;2023-12-20T01:40:44;6.80;99.90
27306;DHT22;14792;50.886;6.468;2023-12-20T01:43:45;6.70;99.90
27306;DHT22;14792;50.886;6.468;2023-12-20T01:46:47;6.60;99.90
27306;DHT22;14792;50.886;6.468;2023-12-20T01:49:49;6.50;99.90
27306;DHT22;14792;50.886;6.468;2023-12-20T01:52:51;6.40;99.90
27306;DHT22;14792;50.886;6.468;2023-12-20T01:55:52;6.40;99.90
27306;DHT22;14792;50.886;6.468;2023-12-20T01:58:54;6.30;99.90
27306;DHT22;14792;50.886;6.468;2023-12-20T02:01:55;6.30;99.90
27306;DHT22;14792;50.886;6.468;2023-12-20T02:04:57;6.20;99.90
27306;DHT22;14792;50.886;6.468;2023-12-20T02:07:59;6.10;99.90
27306;DHT22;14792;50.886;6.468;2023-12-20T02:11:00;6.10;99.90
27306;DHT22;14792;50.886;6.468;2023-12-20T02:14:02;6.00;99.90
27306;DHT22;14792;50.886;6.468;2023-12-20T02:17:03;6.10;99.90
27306;DHT22;14792;50.886;6.468;2023-12-20T02:20:05;6.10;99.90
27306;DHT22;14792;50.886;6.468;2023-12-20T02:23:07;6.10;99.90
27306;DHT22;14792;50.886;6.468;2023-12-20T02:26:08;6.10;99.90
27306;DHT22;14792;50.886;6.468;2023-12-20T02:29:10;6.10;99.90
27306;DHT22;14792;50.886;6.468;2023-12-20T02:32:11;6.10;99.90
27306;DHT22;14792;50.886;6.468;2023-12-20T02:35:13;6.20;99.90
27306;DHT22;14792;50.886;6.468;2023-12-20T02:38:15;6.20;99.90
27306;DHT22;14792;50.886;6.468;2023-12-20T02:41:16;6.20;99.90
27306;DHT22;14792;50.886;6.468;2023-12-20T02:44:18;6.30;99.90
27306;DHT22;14792;50.886;6.468;2023-12-20T02:47:19;6.30;99.90
27306;DHT22;14792;50.886;6.468;2023-12-20T02:50:21;6.30;99.90
27306;DHT22;14792;50.886;6.468;2023-12-20T02:53:22;6.30;99.90
27306;DHT22;14792;50.886;6.468;2023-12-20T02:56:24;6.30;99.90
27306;DHT22;14792;50.886;6.468;2023-12-20T02:59:26;6.40;99.90
27306;DHT22;14792;50.886;6.468;2023-12-20T03:02:27;6.30;99.90
27306;DHT22;14792;50.886;6.468;2023-12-20T03:05:29;6.30;99.90
27306;DHT22;14792;50.886;6.468;2023-12-20T03:08:30;6.30;99.90
27306;DHT22;14792;50.886;6.468;2023-12-20T03:11:32;6.30;99.90
27306;DHT22;14792;50.886;6.468;2023-12-20T03:14:34;6.30;99.90
27306;DHT22;14792;50.886;6.468;2023-12-20T03:17:35;6.30;99.90
27306;DHT22;14792;50.886;6.468;2023-12-20T03:20:37;6.30;99.90
27306;DHT22;14792;50.886;6.468;2023-12-20T03:23:38;6.30;99.90
27306;DHT22;14792;50.886;6.468;2023-12-20T03:26:40;6.30;99.90
27306;DHT22;14792;50.886;6.468;2023-12-20T03:29:42;6.30;99.90
27306;DHT22;14792;50.886;6.468;2023-12-20T03:32:43;6.30;99.90
27306;DHT22;14792;50.886;6.468;2023-12-20T03:35:45;6.30;99.90
27306;DHT22;14792;50.886;6.468;2023-12-20T03:38:46;6.20;99.90
27306;DHT22;14792;50.886;6.468;2023-12-20T03:41:48;6.30;99.90
27306;DHT22;14792;50.886;6.468;2023-12-20T03:44:49;6.20;99.90
27306;DHT22;14792;50.886;6.468;2023-12-20T03:47:51;6.30;99.90
27306;DHT22;14792;50.886;6.468;2023-12-20T03:50:56;6.30;99.90
27306;DHT22;14792;50.886;6.468;2023-12-20T03:53:57;6.20;99.90
27306;DHT22;14792;50.886;6.468;2023-12-20T03:56:58;6.20;99.90
27306;DHT22;14792;50.886;6.468;2023-12-20T04:00:00;6.20;99.90
27306;DHT22;14792;50.886;6.468;2023-12-20T04:03:02;6.20;99.90
27306;DHT22;14792;50.886;6.468;2023-12-20T04:06:03;6.10;99.90
27306;DHT22;14792;50.886;6.468;2023-12-20T04:09:05;6.10;99.90
27306;DHT22;14792;50.886;6.468;2023-12-20T04:12:06;6.10;99.90
27306;DHT22;14792;50.886;6.468;2023-12-20T04:15:08;6.10;99.90
27306;DHT22;14792;50.886;6.468;2023-12-20T04:18:10;6.10;99.90
27306;DHT22;14792;50.886;6.468;2023-12-20T04:21:11;6.10;99.90
27306;DHT22;14792;50.886;6.468;2023-12-20T04:24:13;6.10;99.90
27306;DHT22;14792;50.886;6.468;2023-12-20T04:27:14;6.10;99.90
27306;DHT22;14792;50.886;6.468;2023-12-20T04:30:16;5.90;99.90
27306;DHT22;14792;50.886;6.468;2023-12-20T04:33:17;6.00;99.90
27306;DHT22;14792;50.886;6.468;2023-12-20T04:36:19;6.00;99.90
27306;DHT22;14792;50.886;6.468;2023-12-20T04:39:21;6.00;99.90
27306;DHT22;14792;50.886;6.468;2023-12-20T04:42:22;6.00;99.90
27306;DHT22;14792;50.886;6.468;2023-12-20T04:45:24;6.00;99.90
27306;DHT22;14792;50.886;6.468;2023-12-20T04:48:25;6.00;99.90
27306;DHT22;14792;50.886;6.468;2023-12-20T04:51:27;6.00;99.90
27306;DHT22;14792;50.886;6.468;2023-12-20T04:54:29;6.00;99.90
27306;DHT22;14792;50.886;6.468;2023-12-20T04:57:30;6.00;99.90
27306;DHT22;14792;50.886;6.468;2023-12-20T05:00:32;6.00;99.90
27306;DHT22;14792;50.886;6.468;2023-12-20T05:03:33;6.00;99.90
27306;DHT22;14792;50.886;6.468;2023-12-20T05:06:35;6.00;99.90
27306;DHT22;14792;50.886;6.468;2023-12-20T05:09:36;6.00;99.90
27306;DHT22;14792;50.886;6.468;2023-12-20T05:12:38;6.00;99.90
27306;DHT22;14792;50.886;6.468;2023-12-20T05:15:40;6.00;99.90
27306;DHT22;14792;50.886;6.468;2023-12-20T05:18:41;6.00;99.90
27306;DHT22;14792;50.886;6.468;2023-12-20T05:21:44;6.00;99.90
27306;DHT22;14792;50.886;6.468;2023-12-20T05:24:46;6.00;99.90
27306;DHT22;14792;50.886;6.468;2023-12-20T05:27:47;6.00;99.90
27306;DHT22;14792;50.886;6.468;2023-12-20T05:30:49;6.00;99.90
27306;DHT22;14792;50.886;6.468;2023-12-20T05:33:50;5.90;99.90
27306;DHT22;14792;50.886;6.468;2023-12-20T05:36:52;5.90;99.90
27306;DHT22;14792;50.886;6.468;2023-12-20T05:39:54;5.90;99.90
27306;DHT22;14792;50.886;6.468;2023-12-20T05:42:55;5.90;99.90
27306;DHT22;14792;50.886;6.468;2023-12-20T05:45:57;5.90;99.90
27306;DHT22;14792;50.886;6.468;2023-12-20T05:48:58;5.90;99.90
27306;DHT22;14792;50.886;6.468;2023-12-20T05:52:02;5.90;99.90
27306;DHT22;14792;50.886;6.468;2023-12-20T05:55:03;6.00;99.90
27306;DHT22;14792;50.886;6.468;2023-12-20T05:58:05;6.00;99.90
27306;DHT22;14792;50.886;6.468;2023-12-20T06:01:07;6.10;99.90
27306;DHT22;14792;50.886;6.468;2023-12-20T06:04:08;6.10;99.90
27306;DHT22;14792;50.886;6.468;2023-12-20T06:07:13;6.10;99.90
27306;DHT22;14792;50.886;6.468;2023-12-20T06:10:14;6.10;99.90
27306;DHT22;14792;50.886;6.468;2023-12-20T06:13:16;6.10;99.90
27306;DHT22;14792;50.886;6.468;2023-12-20T06:16:17;6.10;99.90
27306;DHT22;14792;50.886;6.468;2023-12-20T06:19:19;6.10;99.90
27306;DHT22;14792;50.886;6.468;2023-12-20T06:22:21;6.10;99.90
27306;DHT22;14792;50.886;6.468;2023-12-20T06:25:22;6.10;99.90
27306;DHT22;14792;50.886;6.468;2023-12-20T06:28:24;6.10;99.90
27306;DHT22;14792;50.886;6.468;2023-12-20T06:31:25;6.20;99.90
27306;DHT22;14792;50.886;6.468;2023-12-20T06:34:27;6.20;99.90
27306;DHT22;14792;50.886;6.468;2023-12-20T06:37:28;6.10;99.90
27306;DHT22;14792;50.886;6.468;2023-12-20T06:40:30;6.10;99.90
27306;DHT22;14792;50.886;6.468;2023-12-20T06:43:32;6.10;99.90
27306;DHT22;14792;50.886;6.468;2023-12-20T06:46:33;6.10;99.90
27306;DHT22;14792;50.886;6.468;2023-12-20T06:49:35;6.10;99.90
27306;DHT22;14792;50.886;6.468;2023-12-20T06:52:36;6.10;99.90
27306;DHT22;14792;50.886;6.468;2023-12-20T06:55:38;6.10;99.90
27306;DHT22;14792;50.886;6.468;2023-12-20T06:58:40;6.10;99.90
27306;DHT22;14792;50.886;6.468;2023-12-20T07:01:41;6.10;99.90
27306;DHT22;14792;50.886;6.468;2023-12-20T07:04:43;6.10;99.90
27306;DHT22;14792;50.886;6.468;2023-12-20T07:07:44;6.10;99.90
27306;DHT22;14792;50.886;6.468;2023-12-20T07:10:46;6.10;99.90
27306;DHT22;14792;50.886;6.468;2023-12-20T07:13:47;6.10;99.90
27306;DHT22;14792;50.886;6.468;2023-12-20T07:16:49;6.10;99.90
27306;DHT22;14792;50.886;6.468;2023-12-20T07:19:51;6.10;99.90
27306;DHT22;14792;50.886;6.468;2023-12-20T07:22:52;6.10;99.90
27306;DHT22;14792;50.886;6.468;2023-12-20T07:25:54;6.10;99.90
27306;DHT22;14792;50.886;6.468;2023-12-20T07:28:55;6.10;99.90
27306;DHT22;14792;50.886;6.468;2023-12-20T07:31:57;6.10;99.90
27306;DHT22;14792;50.886;6.468;2023-12-20T07:34:59;6.10;99.90
27306;DHT22;14792;50.886;6.468;2023-12-20T07:38:00;6.10;99.90
27306;DHT22;14792;50.886;6.468;2023-12-20T07:41:02;6.10;99.90
27306;DHT22;14792;50.886;6.468;2023-12-20T07:44:04;6.10;99.90
27306;DHT22;14792;50.886;6.468;2023-12-20T07:47:05;6.10;99.90
27306;DHT22;14792;50.886;6.468;2023-12-20T07:50:06;6.10;99.90
27306;DHT22;14792;50.886;6.468;2023-12-20T07:53:08;6.00;99.90
27306;DHT22;14792;50.886;6.468;2023-12-20T07:56:16;6.00;99.90
27306;DHT22;14792;50.886;6.468;2023-12-20T07:59:17;6.00;99.90
27306;DHT22;14792;50.886;6.468;2023-12-20T08:02:19;6.00;99.90
27306;DHT22;14792;50.886;6.468;2023-12-20T08:05:20;5.90;99.90
27306;DHT22;14792;50.886;6.468;2023-12-20T08:08:22;6.00;99.90
27306;DHT22;14792;50.886;6.468;2023-12-20T08:11:23;5.90;99.90
27306;DHT22;14792;50.886;6.468;2023-12-20T08:14:25;5.90;99.90
27306;DHT22;14792;50.886;6.468;2023-12-20T08:17:27;5.90;99.90
27306;DHT22;14792;50.886;6.468;2023-12-20T08:20:28;5.90;99.90
27306;DHT22;14792;50.886;6.468;2023-12-20T08:23:30;5.90;99.90
27306;DHT22;14792;50.886;6.468;2023-12-20T08:26:32;5.90;99.90
27306;DHT22;14792;50.886;6.468;2023-12-20T08:29:33;5.90;99.90
27306;DHT22;14792;50.886;6.468;2023-12-20T08:32:35;5.90;99.90
27306;DHT22;14792;50.886;6.468;2023-12-20T08:35:36;6.00;99.90
27306;DHT22;14792;50.886;6.468;2023-12-20T08:38:38;6.10;99.90
27306;DHT22;14792;50.886;6.468;2023-12-20T08:41:39;6.10;99.90
27306;DHT22;14792;50.886;6.468;2023-12-20T08:44:41;6.00;99.90
27306;DHT22;14792;50.886;6.468;2023-12-20T08:47:42;6.00;99.90
27306;DHT22;14792;50.886;6.468;2023-12-20T08:50:44;6.10;99.90
27306;DHT22;14792;50.886;6.468;2023-12-20T08:53:46;6.10;99.90
27306;DHT22;14792;50.886;6.468;2023-12-20T08:56:47;6.20;99.90
27306;DHT22;14792;50.886;6.468;2023-12-20T08:59:49;6.30;99.90
27306;DHT22;14792;50.886;6.468;2023-12-20T09:02:50;6.20;99.90
27306;DHT22;14792;50.886;6.468;2023-12-20T09:05:52;6.30;99.90
27306;DHT22;14792;50.886;6.468;2023-12-20T09:08:54;6.30;99.90
27306;DHT22;14792;50.886;6.468;2023-12-20T09:11:55;6.30;99.90
27306;DHT22;14792;50.886;6.468;2023-12-20T09:14:57;6.30;99.90
27306;DHT22;14792;50.886;6.468;2023-12-20T09:17:58;6.30;99.90
27306;DHT22;14792;50.886;6.468;2023-12-20T09:21:00;6.30;99.90
27306;DHT22;14792;50.886;6.468;2023-12-20T09:24:01;6.40;99.90
27306;DHT22;14792;50.886;6.468;2023-12-20T09:27:03;6.40;99.90
27306;DHT22;14792;50.886;6.468;2023-12-20T09:30:05;6.40;99.90
27306;DHT22;14792;50.886;6.468;2023-12-20T09:33:06;6.50;99.90
27306;DHT22;14792;50.886;6.468;2023-12-20T09:36:08;6.60;99.90
27306;DHT22;14792;50.886;6.468;2023-12-20T09:39:09;6.60;99.90
27306;DHT22;14792;50.886;6.468;2023-12-20T09:42:11;6.60;99.90
27306;DHT22;14792;50.886;6.468;2023-12-20T09:45:13;6.60;99.90
27306;DHT22;14792;50.886;6.468;2023-12-20T09:48:15;6.50;99.90
27306;DHT22;14792;50.886;6.468;2023-12-20T09:51:16;6.50;99.90
27306;DHT22;14792;50.886;6.468;2023-12-20T09:54:17;6.60;99.90
27306;DHT22;14792;50.886;6.468;2023-12-20T09:57:19;6.70;99.90
27306;DHT22;14792;50.886;6.468;2023-12-20T10:00:21;6.70;99.90
27306;DHT22;14792;50.886;6.468;2023-12-20T10:03:24;6.80;99.90
27306;DHT22;14792;50.886;6.468;2023-12-20T10:06:24;6.80;99.90
27306;DHT22;14792;50.886;6.468;2023-12-20T10:09:25;6.70;99.90
27306;DHT22;14792;50.886;6.468;2023-12-20T10:12:27;6.70;99.90
27306;DHT22;14792;50.886;6.468;2023-12-20T10:15:28;6.70;99.90
27306;DHT22;14792;50.886;6.468;2023-12-20T10:18:30;6.70;99.90
27306;DHT22;14792;50.886;6.468;2023-12-20T10:21:32;6.70;99.90
27306;DHT22;14792;50.886;6.468;2023-12-20T10:24:33;6.70;99.90
27306;DHT22;14792;50.886;6.468;2023-12-20T10:27:35;6.70;99.90
27306;DHT22;14792;50.886;6.468;2023-12-20T10:30:37;6.70;99.90
27306;DHT22;14792;50.886;6.468;2023-12-20T10:33:38;6.70;99.90
27306;DHT22;14792;50.886;6.468;2023-12-20T10:36:40;6.70;99.90
27306;DHT22;14792;50.886;6.468;2023-12-20T10:39:42;6.80;99.90
27306;DHT22;14792;50.886;6.468;2023-12-20T10:42:43;6.80;99.90
27306;DHT22;14792;50.886;6.468;2023-12-20T10:45:44;6.90;99.90
27306;DHT22;14792;50.886;6.468;2023-12-20T10:48:46;7.00;99.90
27306;DHT22;14792;50.886;6.468;2023-12-20T10:51:47;7.00;99.90
27306;DHT22;14792;50.886;6.468;2023-12-20T10:54:49;7.00;99.90
27306;DHT22;14792;50.886;6.468;2023-12-20T10:57:51;7.00;99.90
27306;DHT22;14792;50.886;6.468;2023-12-20T11:00:54;7.00;99.90
27306;DHT22;14792;50.886;6.468;2023-12-20T11:03:54;7.00;99.90
27306;DHT22;14792;50.886;6.468;2023-12-20T11:06:56;7.00;99.90
27306;DHT22;14792;50.886;6.468;2023-12-20T11:13:12;7.00;99.90
27306;DHT22;14792;50.886;6.468;2023-12-20T11:16:12;7.00;99.90
27306;DHT22;14792;50.886;6.468;2023-12-20T11:19:13;7.10;99.90
27306;DHT22;14792;50.886;6.468;2023-12-20T11:22:15;7.10;99.90
27306;DHT22;14792;50.886;6.468;2023-12-20T11:25:17;7.10;99.90
27306;DHT22;14792;50.886;6.468;2023-12-20T11:28:24;7.20;99.90
27306;DHT22;14792;50.886;6.468;2023-12-20T11:31:23;7.20;99.90
27306;DHT22;14792;50.886;6.468;2023-12-20T11:34:26;7.20;99.90
27306;DHT22;14792;50.886;6.468;2023-12-20T11:37:29;7.20;99.90
27306;DHT22;14792;50.886;6.468;2023-12-20T11:40:30;7.30;99.90
27306;DHT22;14792;50.886;6.468;2023-12-20T11:43:34;7.40;99.90
27306;DHT22;14792;50.886;6.468;2023-12-20T11:46:33;7.40;99.90
27306;DHT22;14792;50.886;6.468;2023-12-20T11:49:35;7.40;99.90
27306;DHT22;14792;50.886;6.468;2023-12-20T11:52:37;7.40;99.90
27306;DHT22;14792;50.886;6.468;2023-12-20T11:55:38;7.50;99.90
27306;DHT22;14792;50.886;6.468;2023-12-20T11:58:40;7.40;99.90
27306;DHT22;14792;50.886;6.468;2023-12-20T12:01:47;7.40;99.90
27306;DHT22;14792;50.886;6.468;2023-12-20T12:04:43;7.40;99.90
27306;DHT22;14792;50.886;6.468;2023-12-20T12:07:45;7.40;99.90
27306;DHT22;14792;50.886;6.468;2023-12-20T12:10:46;7.30;99.90
27306;DHT22;14792;50.886;6.468;2023-12-20T12:13:48;7.30;99.90
27306;DHT22;14792;50.886;6.468;2023-12-20T12:16:49;7.30;99.90
27306;DHT22;14792;50.886;6.468;2023-12-20T12:19:51;7.30;99.90
27306;DHT22;14792;50.886;6.468;2023-12-20T12:23:02;7.30;99.90
27306;DHT22;14792;50.886;6.468;2023-12-20T12:26:06;7.30;99.90
27306;DHT22;14792;50.886;6.468;2023-12-20T12:29:07;7.30;99.90
27306;DHT22;14792;50.886;6.468;2023-12-20T12:32:09;7.30;99.90
27306;DHT22;14792;50.886;6.468;2023-12-20T12:35:10;7.30;99.90
27306;DHT22;14792;50.886;6.468;2023-12-20T12:38:12;7.30;99.90
27306;DHT22;14792;50.886;6.468;2023-12-20T12:41:13;7.40;99.90
27306;DHT22;14792;50.886;6.468;2023-12-20T12:44:15;7.30;99.90
27306;DHT22;14792;50.886;6.468;2023-12-20T12:47:17;7.30;99.90
27306;DHT22;14792;50.886;6.468;2023-12-20T12:50:18;7.40;99.90
27306;DHT22;14792;50.886;6.468;2023-12-20T12:53:20;7.30;99.90
27306;DHT22;14792;50.886;6.468;2023-12-20T12:56:21;7.30;99.90
27306;DHT22;14792;50.886;6.468;2023-12-20T12:59:23;7.30;99.90
27306;DHT22;14792;50.886;6.468;2023-12-20T13:02:24;7.30;99.90
27306;DHT22;14792;50.886;6.468;2023-12-20T13:05:26;7.30;99.90
27306;DHT22;14792;50.886;6.468;2023-12-20T13:08:28;7.20;99.90
27306;DHT22;14792;50.886;6.468;2023-12-20T13:11:29;7.20;99.90
27306;DHT22;14792;50.886;6.468;2023-12-20T13:14:32;7.20;99.90
27306;DHT22;14792;50.886;6.468;2023-12-20T13:17:32;7.30;99.90
27306;DHT22;14792;50.886;6.468;2023-12-20T13:20:34;7.30;99.90
27306;DHT22;14792;50.886;6.468;2023-12-20T13:23:36;7.30;99.90
27306;DHT22;14792;50.886;6.468;2023-12-20T13:26:37;7.30;99.90
27306;DHT22;14792;50.886;6.468;2023-12-20T13:29:39;7.30;99.90
27306;DHT22;14792;50.886;6.468;2023-12-20T13:32:40;7.40;99.90
27306;DHT22;14792;50.886;6.468;2023-12-20T13:35:42;7.50;99.90
27306;DHT22;14792;50.886;6.468;2023-12-20T13:38:44;7.50;99.90
27306;DHT22;14792;50.886;6.468;2023-12-20T13:41:45;7.60;99.90
27306;DHT22;14792;50.886;6.468;2023-12-20T13:44:47;7.60;99.90
27306;DHT22;14792;50.886;6.468;2023-12-20T13:47:48;7.60;99.90
27306;DHT22;14792;50.886;6.468;2023-12-20T13:50:50;7.60;99.90
27306;DHT22;14792;50.886;6.468;2023-12-20T13:53:51;7.50;99.90
27306;DHT22;14792;50.886;6.468;2023-12-20T13:56:53;7.50;99.90
27306;DHT22;14792;50.886;6.468;2023-12-20T13:59:55;7.50;99.90
27306;DHT22;14792;50.886;6.468;2023-12-20T14:02:56;7.50;99.90
27306;DHT22;14792;50.886;6.468;2023-12-20T14:05:58;7.50;99.90
27306;DHT22;14792;50.886;6.468;2023-12-20T14:08:59;7.50;99.90
27306;DHT22;14792;50.886;6.468;2023-12-20T14:12:01;7.50;99.90
27306;DHT22;14792;50.886;6.468;2023-12-20T14:15:03;7.60;99.90
27306;DHT22;14792;50.886;6.468;2023-12-20T14:18:04;7.60;99.90
27306;DHT22;14792;50.886;6.468;2023-12-20T14:21:07;7.60;99.90
27306;DHT22;14792;50.886;6.468;2023-12-20T14:24:09;7.60;99.90
27306;DHT22;14792;50.886;6.468;2023-12-20T14:27:10;7.60;99.90
27306;DHT22;14792;50.886;6.468;2023-12-20T14:30:12;7.60;99.90
27306;DHT22;14792;50.886;6.468;2023-12-20T14:33:14;7.70;99.90
27306;DHT22;14792;50.886;6.468;2023-12-20T14:36:15;7.60;99.90
27306;DHT22;14792;50.886;6.468;2023-12-20T14:39:17;7.70;99.90
27306;DHT22;14792;50.886;6.468;2023-12-20T14:42:18;7.60;99.90
27306;DHT22;14792;50.886;6.468;2023-12-20T14:45:20;7.60;99.90
27306;DHT22;14792;50.886;6.468;2023-12-20T14:48:21;7.60;99.90
27306;DHT22;14792;50.886;6.468;2023-12-20T14:51:23;7.50;99.90
27306;DHT22;14792;50.886;6.468;2023-12-20T14:54:25;7.60;99.90
27306;DHT22;14792;50.886;6.468;2023-12-20T14:57:26;7.60;99.90
27306;DHT22;14792;50.886;6.468;2023-12-20T15:00:28;7.60;99.90
27306;DHT22;14792;50.886;6.468;2023-12-20T15:03:29;7.60;99.90
27306;DHT22;14792;50.886;6.468;2023-12-20T15:06:31;7.60;99.90
27306;DHT22;14792;50.886;6.468;2023-12-20T15:09:33;7.60;99.90
27306;DHT22;14792;50.886;6.468;2023-12-20T15:12:34;7.60;99.90
27306;DHT22;14792;50.886;6.468;2023-12-20T15:15:36;7.60;99.90
27306;DHT22;14792;50.886;6.468;2023-12-20T15:18:37;7.50;99.90
27306;DHT22;14792;50.886;6.468;2023-12-20T15:21:39;7.50;99.90
27306;DHT22;14792;50.886;6.468;2023-12-20T15:24:43;7.50;99.90
27306;DHT22;14792;50.886;6.468;2023-12-20T15:27:45;7.50;99.90
27306;DHT22;14792;50.886;6.468;2023-12-20T15:30:46;7.40;99.90
27306;DHT22;14792;50.886;6.468;2023-12-20T15:33:48;7.40;99.90
27306;DHT22;14792;50.886;6.468;2023-12-20T15:36:51;7.40;99.90
27306;DHT22;14792;50.886;6.468;2023-12-20T15:39:52;7.40;99.90
27306;DHT22;14792;50.886;6.468;2023-12-20T15:42:54;7.40;99.90
27306;DHT22;14792;50.886;6.468;2023-12-20T15:45:55;7.40;99.90
27306;DHT22;14792;50.886;6.468;2023-12-20T15:48:57;7.40;99.90
27306;DHT22;14792;50.886;6.468;2023-12-20T15:51:59;7.40;99.90
27306;DHT22;14792;50.886;6.468;2023-12-20T15:55:00;7.40;99.90
27306;DHT22;14792;50.886;6.468;2023-12-20T15:58:02;7.40;99.90
27306;DHT22;14792;50.886;6.468;2023-12-20T16:01:03;7.40;99.90
27306;DHT22;14792;50.886;6.468;2023-12-20T16:04:05;7.40;99.90
27306;DHT22;14792;50.886;6.468;2023-12-20T16:07:07;7.40;99.90
27306;DHT22;14792;50.886;6.468;2023-12-20T16:10:09;7.40;99.90
27306;DHT22;14792;50.886;6.468;2023-12-20T16:13:11;7.40;99.90
27306;DHT22;14792;50.886;6.468;2023-12-20T16:16:13;7.40;99.90
27306;DHT22;14792;50.886;6.468;2023-12-20T16:19:14;7.50;99.90
27306;DHT22;14792;50.886;6.468;2023-12-20T16:22:17;7.50;99.90
27306;DHT22;14792;50.886;6.468;2023-12-20T16:25:19;7.50;99.90
27306;DHT22;14792;50.886;6.468;2023-12-20T16:28:20;7.50;99.90
27306;DHT22;14792;50.886;6.468;2023-12-20T16:31:22;7.50;99.90
27306;DHT22;14792;50.886;6.468;2023-12-20T16:34:24;7.50;99.90
27306;DHT22;14792;50.886;6.468;2023-12-20T16:37:25;7.60;99.90
27306;DHT22;14792;50.886;6.468;2023-12-20T16:40:27;7.50;99.90
27306;DHT22;14792;50.886;6.468;2023-12-20T16:43:28;7.60;99.90
27306;DHT22;14792;50.886;6.468;2023-12-20T16:46:30;7.50;99.90
27306;DHT22;14792;50.886;6.468;2023-12-20T16:49:32;7.60;99.90
27306;DHT22;14792;50.886;6.468;2023-12-20T16:52:33;7.60;99.90
27306;DHT22;14792;50.886;6.468;2023-12-20T16:55:38;7.60;99.90
27306;DHT22;14792;50.886;6.468;2023-12-20T16:58:40;7.70;99.90
27306;DHT22;14792;50.886;6.468;2023-12-20T17:01:41;7.70;99.90
27306;DHT22;14792;50.886;6.468;2023-12-20T17:04:46;7.80;99.90
27306;DHT22;14792;50.886;6.468;2023-12-20T17:07:47;7.80;99.90
27306;DHT22;14792;50.886;6.468;2023-12-20T17:10:49;7.80;99.90
27306;DHT22;14792;50.886;6.468;2023-12-20T17:13:51;7.80;99.90
27306;DHT22;14792;50.886;6.468;2023-12-20T17:16:52;7.80;99.90
27306;DHT22;14792;50.886;6.468;2023-12-20T17:19:54;7.80;99.90
27306;DHT22;14792;50.886;6.468;2023-12-20T17:22:55;7.90;99.90
27306;DHT22;14792;50.886;6.468;2023-12-20T17:25:57;7.90;99.90
27306;DHT22;14792;50.886;6.468;2023-12-20T17:28:58;7.90;99.90
27306;DHT22;14792;50.886;6.468;2023-12-20T17:32:00;8.00;99.90
27306;DHT22;14792;50.886;6.468;2023-12-20T17:35:02;8.00;99.90
27306;DHT22;14792;50.886;6.468;2023-12-20T17:38:03;8.10;99.90
27306;DHT22;14792;50.886;6.468;2023-12-20T17:41:05;8.10;99.90
27306;DHT22;14792;50.886;6.468;2023-12-20T17:44:06;8.10;99.90
27306;DHT22;14792;50.886;6.468;2023-12-20T17:47:08;8.10;99.90
27306;DHT22;14792;50.886;6.468;2023-12-20T17:50:10;8.10;99.90
27306;DHT22;14792;50.886;6.468;2023-12-20T17:53:11;8.10;99.90
27306;DHT22;14792;50.886;6.468;2023-12-20T17:56:13;8.10;99.90
27306;DHT22;14792;50.886;6.468;2023-12-20T17:59:14;8.10;99.90
27306;DHT22;14792;50.886;6.468;2023-12-20T18:02:16;8.20;99.90
27306;DHT22;14792;50.886;6.468;2023-12-20T18:05:18;8.20;99.90
27306;DHT22;14792;50.886;6.468;2023-12-20T18:08:19;8.20;99.90
27306;DHT22;14792;50.886;6.468;2023-12-20T18:11:21;8.20;99.90
27306;DHT22;14792;50.886;6.468;2023-12-20T18:14:22;8.20;99.90
27306;DHT22;14792;50.886;6.468;2023-12-20T18:17:25;8.20;99.90
27306;DHT22;14792;50.886;6.468;2023-12-20T18:20:25;8.20;99.90
27306;DHT22;14792;50.886;6.468;2023-12-20T18:23:29;8.30;99.90
27306;DHT22;14792;50.886;6.468;2023-12-20T18:26:31;8.30;99.90
27306;DHT22;14792;50.886;6.468;2023-12-20T18:29:32;8.30;99.90
27306;DHT22;14792;50.886;6.468;2023-12-20T18:32:34;8.40;99.90
27306;DHT22;14792;50.886;6.468;2023-12-20T18:35:35;8.40;99.90
27306;DHT22;14792;50.886;6.468;2023-12-20T18:38:37;8.30;99.90
27306;DHT22;14792;50.886;6.468;2023-12-20T18:41:39;8.40;99.90
27306;DHT22;14792;50.886;6.468;2023-12-20T18:44:40;8.30;99.90
27306;DHT22;14792;50.886;6.468;2023-12-20T18:47:42;8.30;99.90
27306;DHT22;14792;50.886;6.468;2023-12-20T18:50:43;8.30;99.90
27306;DHT22;14792;50.886;6.468;2023-12-20T18:53:45;8.30;99.90
27306;DHT22;14792;50.886;6.468;2023-12-20T18:56:47;8.30;99.90
27306;DHT22;14792;50.886;6.468;2023-12-20T18:59:48;8.30;99.90
27306;DHT22;14792;50.886;6.468;2023-12-20T19:02:50;8.30;99.90
27306;DHT22;14792;50.886;6.468;2023-12-20T19:05:51;8.30;99.90
27306;DHT22;14792;50.886;6.468;2023-12-20T19:08:53;8.30;99.90
27306;DHT22;14792;50.886;6.468;2023-12-20T19:11:55;8.30;99.90
27306;DHT22;14792;50.886;6.468;2023-12-20T19:14:56;8.30;99.90
27306;DHT22;14792;50.886;6.468;2023-12-20T19:17:58;8.30;99.90
27306;DHT22;14792;50.886;6.468;2023-12-20T19:21:00;8.30;99.90
27306;DHT22;14792;50.886;6.468;2023-12-20T19:24:01;8.30;99.90
27306;DHT22;14792;50.886;6.468;2023-12-20T19:27:03;8.30;99.90